Time;durP1;ratioP1;P1;durP2;ratioP2;P2;SDS_P1;SDS_P2;PMS_P1;PMS_P2;Temp;Humidity;BMP_temperature;BMP_pressure;BME280_temperature;BME280_humidity;BME280_pressure;Samples;Min_cycle;Max_cycle;Signal;HPM_P1;HPM_P2
2023/11/06 00:01:16;;;;;;;8.70;2.17;;;;;;;;;;2608833;54;20473;-78
2023/11/06 00:03:42;;;;;;;4.40;1.73;;;;;;;;;;2608427;54;20407;-77
2023/11/06 00:06:08;;;;;;;3.80;2.10;;;;;;;;;;2609354;54;20419;-78
2023/11/06 00:08:34;;;;;;;3.17;1.67;;;;;;;;;;2609577;54;21385;-77
2023/11/06 00:11:00;;;;;;;5.70;1.67;;;;;;;;;;2609769;54;20404;-78
2023/11/06 00:13:27;;;;;;;4.30;1.60;;;;;;;;;;2610505;54;21063;-77
2023/11/06 00:15:53;;;;;;;5.03;1.80;;;;;;;;;;2610169;54;20502;-76
2023/11/06 00:18:19;;;;;;;16.93;3.40;;;;;;;;;;2609138;54;20453;-77
2023/11/06 00:20:45;;;;;;;14.07;2.57;;;;;;;;;;2610123;39;20762;-77
2023/11/06 00:23:11;;;;;;;7.53;2.23;;;;;;;;;;2609147;46;20427;-77
2023/11/06 00:25:37;;;;;;;4.50;1.80;;;;;;;;;;2609659;54;21088;-77
2023/11/06 00:28:04;;;;;;;6.10;2.90;;;;;;;;;;2609238;54;20954;-77
2023/11/06 00:30:30;;;;;;;6.70;2.00;;;;;;;;;;2609543;54;20420;-77
2023/11/06 00:32:57;;;;;;;9.67;2.20;;;;;;;;;;2609929;54;20428;-77
2023/11/06 00:35:23;;;;;;;6.50;1.90;;;;;;;;;;2609486;47;20433;-77
2023/11/06 00:37:49;;;;;;;8.10;1.87;;;;;;;;;;2609485;54;20491;-78
2023/11/06 00:40:15;;;;;;;4.83;1.70;;;;;;;;;;2608296;54;20516;-78
2023/11/06 00:42:41;;;;;;;4.77;1.80;;;;;;;;;;2610317;54;20400;-77
2023/11/06 00:45:08;;;;;;;5.03;2.23;;;;;;;;;;2608963;51;20454;-77
2023/11/06 00:47:35;;;;;;;3.93;1.73;;;;;;;;;;2610155;54;20407;-77
2023/11/06 00:50:01;;;;;;;6.77;2.73;;;;;;;;;;2608913;54;20416;-77
2023/11/06 00:52:27;;;;;;;5.83;2.07;;;;;;;;;;2612702;54;20507;-77
2023/11/06 00:54:53;;;;;;;4.17;1.87;;;;;;;;;;2609761;54;20411;-76
2023/11/06 00:57:19;;;;;;;6.80;3.00;;;;;;;;;;2611147;54;20486;-76
2023/11/06 00:59:47;;;;;;;5.83;1.70;;;;;;;;;;2612487;54;20775;-76
2023/11/06 01:02:13;;;;;;;9.37;2.30;;;;;;;;;;2609312;54;20463;-76
2023/11/06 01:04:39;;;;;;;5.90;1.53;;;;;;;;;;2608004;47;21418;-76
2023/11/06 01:07:05;;;;;;;7.80;2.50;;;;;;;;;;2609114;39;20830;-76
2023/11/06 01:09:31;;;;;;;4.50;1.87;;;;;;;;;;2609251;54;20435;-76
2023/11/06 01:11:57;;;;;;;3.07;1.73;;;;;;;;;;2608909;54;20785;-76
2023/11/06 01:14:23;;;;;;;6.13;1.90;;;;;;;;;;2609415;39;20867;-76
2023/11/06 01:16:50;;;;;;;3.57;1.23;;;;;;;;;;2608304;46;20547;-76
2023/11/06 01:19:20;;;;;;;4.17;1.50;;;;;;;;;;2608645;54;20415;-77
2023/11/06 01:21:46;;;;;;;3.47;1.57;;;;;;;;;;2607650;54;20416;-76
2023/11/06 01:24:12;;;;;;;2.33;1.50;;;;;;;;;;2609724;54;21729;-76
2023/11/06 01:26:42;;;;;;;7.23;2.10;;;;;;;;;;2611065;39;21274;-76
2023/11/06 01:29:08;;;;;;;3.43;1.53;;;;;;;;;;2608761;46;20419;-76
2023/11/06 01:31:35;;;;;;;6.43;1.90;;;;;;;;;;2609696;46;20451;-76
2023/11/06 01:34:01;;;;;;;7.60;2.17;;;;;;;;;;2610759;54;21141;-76
2023/11/06 01:36:28;;;;;;;10.77;3.20;;;;;;;;;;2611193;54;20535;-75
2023/11/06 01:38:54;;;;;;;4.90;1.97;;;;;;;;;;2611030;54;20427;-76
2023/11/06 01:41:20;;;;;;;2.27;1.33;;;;;;;;;;2609048;54;20432;-76
2023/11/06 01:43:46;;;;;;;4.27;1.03;;;;;;;;;;2608809;54;20389;-77
2023/11/06 01:46:12;;;;;;;6.67;2.17;;;;;;;;;;2607556;54;21616;-76
2023/11/06 01:48:39;;;;;;;3.40;1.50;;;;;;;;;;2608227;54;20408;-76
2023/11/06 01:51:05;;;;;;;5.67;1.87;;;;;;;;;;2609524;54;20502;-76
2023/11/06 01:53:31;;;;;;;6.50;1.90;;;;;;;;;;2608038;47;20408;-76
2023/11/06 01:55:57;;;;;;;4.10;1.50;;;;;;;;;;2609132;54;20403;-77
2023/11/06 01:58:23;;;;;;;5.60;1.57;;;;;;;;;;2609172;54;20514;-77
2023/11/06 02:00:50;;;;;;;2.57;1.27;;;;;;;;;;2608791;54;20961;-76
2023/11/06 02:03:17;;;;;;;2.10;1.40;;;;;;;;;;2609644;54;21024;-76
2023/11/06 02:05:44;;;;;;;4.67;1.47;;;;;;;;;;2609818;51;20407;-76
2023/11/06 02:08:10;;;;;;;4.40;2.13;;;;;;;;;;2608803;54;20420;-77
2023/11/06 02:10:36;;;;;;;2.20;1.30;;;;;;;;;;2608251;54;20966;-76
2023/11/06 02:13:02;;;;;;;8.30;1.63;;;;;;;;;;2609232;54;20445;-76
2023/11/06 02:15:28;;;;;;;7.63;1.70;;;;;;;;;;2607131;54;20955;-76
2023/11/06 02:17:57;;;;;;;3.97;1.90;;;;;;;;;;2609059;54;20973;-76
2023/11/06 02:20:23;;;;;;;9.27;1.40;;;;;;;;;;2608922;54;20450;-76
2023/11/06 02:22:50;;;;;;;8.67;2.07;;;;;;;;;;2607735;39;21337;-76
2023/11/06 02:25:16;;;;;;;7.07;1.87;;;;;;;;;;2609068;54;20499;-76
2023/11/06 02:27:42;;;;;;;2.60;1.50;;;;;;;;;;2608079;54;20446;-76
2023/11/06 02:30:09;;;;;;;4.20;2.17;;;;;;;;;;2608556;54;21550;-77
2023/11/06 02:32:35;;;;;;;3.50;1.17;;;;;;;;;;2608657;39;20899;-75
2023/11/06 02:35:01;;;;;;;6.50;2.30;;;;;;;;;;2607143;47;20423;-76
2023/11/06 02:37:27;;;;;;;3.67;1.90;;;;;;;;;;2608125;54;20390;-76
2023/11/06 02:39:53;;;;;;;8.23;2.33;;;;;;;;;;2607491;39;20822;-77
2023/11/06 02:42:20;;;;;;;4.33;1.70;;;;;;;;;;2607870;54;20450;-77
2023/11/06 02:44:46;;;;;;;7.50;2.50;;;;;;;;;;2608609;39;20641;-77
2023/11/06 02:47:12;;;;;;;5.23;2.10;;;;;;;;;;2608494;47;20427;-77
2023/11/06 02:49:39;;;;;;;2.83;1.63;;;;;;;;;;2608407;54;20985;-76
2023/11/06 02:52:05;;;;;;;5.70;2.13;;;;;;;;;;2607302;31;20932;-76
2023/11/06 02:54:31;;;;;;;5.77;1.83;;;;;;;;;;2608335;39;21070;-76
2023/11/06 02:56:57;;;;;;;18.93;1.93;;;;;;;;;;2608782;54;20410;-77
2023/11/06 02:59:23;;;;;;;4.67;1.97;;;;;;;;;;2607615;54;20515;-76
2023/11/06 03:01:50;;;;;;;4.30;1.53;;;;;;;;;;2607420;47;20469;-76
2023/11/06 03:04:15;;;;;;;3.27;1.60;;;;;;;;;;2607393;47;20435;-76
2023/11/06 03:06:43;;;;;;;4.90;1.40;;;;;;;;;;2608882;54;20430;-77
2023/11/06 03:09:09;;;;;;;2.50;1.23;;;;;;;;;;2610638;54;20441;-77
2023/11/06 03:11:36;;;;;;;6.43;2.00;;;;;;;;;;2609904;54;20399;-76
2023/11/06 03:14:05;;;;;;;10.30;1.67;;;;;;;;;;2611112;54;20422;-77
2023/11/06 03:16:31;;;;;;;3.50;1.70;;;;;;;;;;2609357;54;20515;-77
2023/11/06 03:18:57;;;;;;;5.03;1.97;;;;;;;;;;2610503;54;20487;-75
2023/11/06 03:21:23;;;;;;;4.80;1.30;;;;;;;;;;2608430;54;20400;-74
2023/11/06 03:23:49;;;;;;;2.97;1.77;;;;;;;;;;2607765;54;20402;-76
2023/11/06 03:26:15;;;;;;;5.20;1.60;;;;;;;;;;2607218;47;21389;-74
2023/11/06 03:28:41;;;;;;;2.63;1.27;;;;;;;;;;2608496;39;20656;-76
2023/11/06 03:31:08;;;;;;;13.77;2.50;;;;;;;;;;2609334;54;20960;-74
2023/11/06 03:33:34;;;;;;;3.67;1.53;;;;;;;;;;2608278;54;20523;-75
2023/11/06 03:36:04;;;;;;;3.40;1.43;;;;;;;;;;2608474;54;21005;-75
2023/11/06 03:38:31;;;;;;;4.27;2.50;;;;;;;;;;2608595;54;20406;-76
2023/11/06 03:40:57;;;;;;;5.17;1.63;;;;;;;;;;2608423;54;21047;-74
2023/11/06 03:43:23;;;;;;;6.60;1.70;;;;;;;;;;2609024;47;20444;-75
2023/11/06 03:45:49;;;;;;;4.27;1.90;;;;;;;;;;2608608;54;20427;-76
2023/11/06 03:48:15;;;;;;;2.77;1.23;;;;;;;;;;2607031;39;20943;-75
2023/11/06 03:50:43;;;;;;;4.43;1.97;;;;;;;;;;2608990;39;20544;-74
2023/11/06 03:53:09;;;;;;;5.80;1.30;;;;;;;;;;2608732;54;20501;-77
2023/11/06 03:55:36;;;;;;;2.60;1.20;;;;;;;;;;2608630;50;20419;-75
2023/11/06 03:58:02;;;;;;;5.73;2.07;;;;;;;;;;2608115;47;20551;-76
2023/11/06 04:00:28;;;;;;;5.20;1.87;;;;;;;;;;2609054;54;20432;-74
2023/11/06 04:02:54;;;;;;;4.10;1.50;;;;;;;;;;2609008;54;21115;-74
2023/11/06 04:05:20;;;;;;;2.00;1.07;;;;;;;;;;2609131;54;20526;-74
2023/11/06 04:07:46;;;;;;;4.17;2.13;;;;;;;;;;2608897;54;20420;-73
2023/11/06 04:10:12;;;;;;;5.60;2.30;;;;;;;;;;2609384;54;20431;-76
2023/11/06 04:12:38;;;;;;;5.17;2.53;;;;;;;;;;2611150;54;21096;-78
2023/11/06 04:15:05;;;;;;;4.40;1.90;;;;;;;;;;2611330;54;20991;-79
2023/11/06 04:17:32;;;;;;;5.10;2.87;;;;;;;;;;2610082;54;20435;-79
2023/11/06 04:19:58;;;;;;;6.17;4.17;;;;;;;;;;2609668;47;20439;-79
2023/11/06 04:22:24;;;;;;;10.37;2.63;;;;;;;;;;2610441;54;20581;-78
2023/11/06 04:24:50;;;;;;;3.47;2.40;;;;;;;;;;2610768;54;20432;-78
2023/11/06 04:27:16;;;;;;;4.37;2.30;;;;;;;;;;2610976;54;20434;-78
2023/11/06 04:29:42;;;;;;;5.87;2.67;;;;;;;;;;2609961;51;20407;-77
2023/11/06 04:32:08;;;;;;;5.70;3.37;;;;;;;;;;2609888;47;20415;-77
2023/11/06 04:34:34;;;;;;;5.43;2.07;;;;;;;;;;2609766;54;21063;-78
2023/11/06 04:37:00;;;;;;;5.23;2.27;;;;;;;;;;2609137;54;20414;-78
2023/11/06 04:39:26;;;;;;;4.57;2.77;;;;;;;;;;2609997;54;20415;-78
2023/11/06 04:41:52;;;;;;;6.10;1.70;;;;;;;;;;2611754;39;20971;-77
2023/11/06 04:44:18;;;;;;;3.40;1.77;;;;;;;;;;2609486;54;20427;-79
2023/11/06 04:46:44;;;;;;;6.90;2.10;;;;;;;;;;2610777;39;20928;-77
2023/11/06 04:49:11;;;;;;;10.03;2.87;;;;;;;;;;2610723;54;20430;-78
2023/11/06 04:51:37;;;;;;;3.10;2.27;;;;;;;;;;2610758;54;20437;-79
2023/11/06 04:54:03;;;;;;;8.20;2.07;;;;;;;;;;2610703;54;20427;-78
2023/11/06 04:56:29;;;;;;;7.30;3.23;;;;;;;;;;2610767;46;20434;-80
2023/11/06 04:58:55;;;;;;;10.23;2.93;;;;;;;;;;2610298;39;20774;-78
2023/11/06 05:01:21;;;;;;;5.10;2.73;;;;;;;;;;2611290;54;20527;-77
2023/11/06 05:03:47;;;;;;;4.80;1.80;;;;;;;;;;2610087;47;20395;-77
2023/11/06 05:06:13;;;;;;;5.37;2.00;;;;;;;;;;2610485;54;20403;-76
2023/11/06 05:08:39;;;;;;;5.23;2.20;;;;;;;;;;2609404;47;21013;-77
2023/11/06 05:11:05;;;;;;;4.93;2.00;;;;;;;;;;2610243;39;20824;-76
2023/11/06 05:13:32;;;;;;;5.10;2.43;;;;;;;;;;2607526;54;20394;-75
2023/11/06 05:15:58;;;;;;;9.17;4.23;;;;;;;;;;2608903;54;20411;-76
2023/11/06 05:18:24;;;;;;;6.53;2.80;;;;;;;;;;2607909;54;20403;-77
2023/11/06 05:20:50;;;;;;;4.47;2.00;;;;;;;;;;2609922;31;20885;-76
2023/11/06 05:23:16;;;;;;;9.50;2.83;;;;;;;;;;2607630;54;20407;-75
2023/11/06 05:25:42;;;;;;;3.17;1.70;;;;;;;;;;2608901;54;20559;-75
2023/11/06 05:28:08;;;;;;;6.93;1.50;;;;;;;;;;2607689;54;20407;-76
2023/11/06 05:30:34;;;;;;;4.30;1.93;;;;;;;;;;2608981;54;20407;-77
2023/11/06 05:33:00;;;;;;;7.80;1.70;;;;;;;;;;2608259;54;20463;-77
2023/11/06 05:35:27;;;;;;;4.57;1.93;;;;;;;;;;2608441;54;20927;-76
2023/11/06 05:37:54;;;;;;;6.67;2.53;;;;;;;;;;2608797;54;20430;-77
2023/11/06 05:40:20;;;;;;;3.33;2.00;;;;;;;;;;2607751;39;20785;-76
2023/11/06 05:42:47;;;;;;;10.53;2.50;;;;;;;;;;2608715;47;20439;-75
2023/11/06 05:45:15;;;;;;;4.73;1.90;;;;;;;;;;2608885;46;20523;-76
2023/11/06 05:47:41;;;;;;;5.87;2.10;;;;;;;;;;2606745;54;21080;-75
2023/11/06 05:50:07;;;;;;;9.17;2.53;;;;;;;;;;2608268;54;20407;-78
2023/11/06 05:52:33;;;;;;;3.60;1.83;;;;;;;;;;2608742;31;20882;-77
2023/11/06 05:55:00;;;;;;;4.30;2.03;;;;;;;;;;2608899;54;20421;-77
2023/11/06 05:57:26;;;;;;;7.03;2.53;;;;;;;;;;2608330;47;21005;-76
2023/11/06 05:59:53;;;;;;;7.07;2.47;;;;;;;;;;2608348;54;20391;-76
2023/11/06 06:02:19;;;;;;;7.23;3.07;;;;;;;;;;2608968;54;20463;-77
2023/11/06 06:04:46;;;;;;;7.80;2.27;;;;;;;;;;2608311;47;21090;-80
2023/11/06 06:07:12;;;;;;;12.00;2.70;;;;;;;;;;2608408;54;20957;-76
2023/11/06 06:09:41;;;;;;;5.07;2.00;;;;;;;;;;2608797;54;20430;-80
2023/11/06 06:12:07;;;;;;;4.50;2.17;;;;;;;;;;2608324;54;20442;-81
2023/11/06 06:14:33;;;;;;;7.53;2.00;;;;;;;;;;2608960;54;20424;-76
2023/11/06 06:17:01;;;;;;;14.37;2.50;;;;;;;;;;2608307;54;20431;-76
2023/11/06 06:19:27;;;;;;;5.83;2.30;;;;;;;;;;2608414;54;20507;-76
2023/11/06 06:21:53;;;;;;;5.40;1.73;;;;;;;;;;2610821;54;20403;-78
2023/11/06 06:24:20;;;;;;;4.57;2.67;;;;;;;;;;2611103;47;20415;-75
2023/11/06 06:26:46;;;;;;;13.30;3.33;;;;;;;;;;2611182;54;20981;-75
2023/11/06 06:29:12;;;;;;;8.93;3.07;;;;;;;;;;2610282;54;20423;-77
2023/11/06 06:31:38;;;;;;;13.13;4.30;;;;;;;;;;2611122;47;21064;-75
2023/11/06 06:34:04;;;;;;;14.43;3.53;;;;;;;;;;2611379;39;20722;-76
2023/11/06 06:36:30;;;;;;;11.03;2.83;;;;;;;;;;2611487;54;20435;-74
2023/11/06 06:38:57;;;;;;;9.73;2.70;;;;;;;;;;2609214;54;20439;-74
2023/11/06 06:41:23;;;;;;;6.87;3.10;;;;;;;;;;2610920;47;20386;-74
2023/11/06 06:43:49;;;;;;;7.60;2.70;;;;;;;;;;2612001;54;20388;-73
2023/11/06 06:46:16;;;;;;;5.93;2.57;;;;;;;;;;2611393;54;20403;-75
2023/11/06 06:48:42;;;;;;;9.93;3.33;;;;;;;;;;2610601;54;20431;-76
2023/11/06 06:51:08;;;;;;;5.33;3.70;;;;;;;;;;2611033;47;20421;-76
2023/11/06 06:53:34;;;;;;;9.73;2.43;;;;;;;;;;2611290;54;20487;-75
2023/11/06 06:56:00;;;;;;;9.77;3.80;;;;;;;;;;2608501;31;20876;-77
2023/11/06 06:58:26;;;;;;;8.83;2.97;;;;;;;;;;2610354;54;20396;-75
2023/11/06 07:00:53;;;;;;;7.90;2.63;;;;;;;;;;2610239;54;20406;-74
2023/11/06 07:03:19;;;;;;;10.83;3.10;;;;;;;;;;2610811;54;20486;-76
2023/11/06 07:05:47;;;;;;;6.73;2.53;;;;;;;;;;2610992;54;20406;-74
2023/11/06 07:08:13;;;;;;;7.70;2.57;;;;;;;;;;2609798;47;20443;-75
2023/11/06 07:10:39;;;;;;;15.10;3.00;;;;;;;;;;2610708;54;20953;-77
2023/11/06 07:13:05;;;;;;;5.50;2.70;;;;;;;;;;2610843;54;20497;-75
2023/11/06 07:15:31;;;;;;;9.30;3.60;;;;;;;;;;2611159;39;21147;-76
2023/11/06 07:17:59;;;;;;;7.80;2.67;;;;;;;;;;2611593;39;20823;-76
2023/11/06 07:20:25;;;;;;;4.83;2.40;;;;;;;;;;2610921;54;20943;-75
2023/11/06 07:22:51;;;;;;;9.20;2.97;;;;;;;;;;2611890;54;20402;-77
2023/11/06 07:25:17;;;;;;;6.17;2.33;;;;;;;;;;2610411;54;21021;-77
2023/11/06 07:27:44;;;;;;;7.57;2.73;;;;;;;;;;2610664;47;20423;-74
2023/11/06 07:30:10;;;;;;;7.40;2.93;;;;;;;;;;2609827;54;20494;-75
2023/11/06 07:32:36;;;;;;;6.00;2.70;;;;;;;;;;2610092;47;21051;-74
2023/11/06 07:35:03;;;;;;;9.27;2.97;;;;;;;;;;2609994;54;20413;-74
2023/11/06 07:37:30;;;;;;;5.30;3.03;;;;;;;;;;2611025;39;20871;-75
2023/11/06 07:39:56;;;;;;;11.20;4.37;;;;;;;;;;2612068;31;20853;-75
2023/11/06 07:42:22;;;;;;;4.13;2.10;;;;;;;;;;2611254;47;20518;-77
2023/11/06 07:44:48;;;;;;;8.77;3.13;;;;;;;;;;2613435;54;20406;-77
2023/11/06 07:47:14;;;;;;;7.20;3.63;;;;;;;;;;2613021;54;20403;-78
2023/11/06 07:49:40;;;;;;;14.17;3.37;;;;;;;;;;2613698;46;20434;-78
2023/11/06 07:52:09;;;;;;;7.57;3.00;;;;;;;;;;2612330;54;20418;-77
2023/11/06 07:54:41;;;;;;;11.03;4.07;;;;;;;;;;2612715;54;20446;-78
2023/11/06 07:57:09;;;;;;;9.90;3.00;;;;;;;;;;2612430;54;20423;-77
2023/11/06 07:59:35;;;;;;;6.60;3.27;;;;;;;;;;2612522;54;20430;-77
2023/11/06 08:02:01;;;;;;;8.93;2.27;;;;;;;;;;2612103;47;20467;-77
2023/11/06 08:04:27;;;;;;;9.40;3.00;;;;;;;;;;2613062;54;20871;-78
2023/11/06 08:06:53;;;;;;;6.57;3.00;;;;;;;;;;2613724;39;20787;-78
2023/11/06 08:09:19;;;;;;;7.10;2.93;;;;;;;;;;2612421;54;20442;-78
2023/11/06 08:11:46;;;;;;;7.23;3.83;;;;;;;;;;2613201;54;20431;-78
2023/11/06 08:14:12;;;;;;;5.60;2.77;;;;;;;;;;2613699;54;20411;-77
2023/11/06 08:16:39;;;;;;;6.40;3.13;;;;;;;;;;2613421;54;20422;-77
2023/11/06 08:19:06;;;;;;;12.03;4.50;;;;;;;;;;2614223;54;20449;-77
2023/11/06 08:21:32;;;;;;;11.40;4.83;;;;;;;;;;2613300;54;20442;-77
2023/11/06 08:23:58;;;;;;;14.83;3.20;;;;;;;;;;2614467;54;20949;-76
2023/11/06 08:26:24;;;;;;;3.60;2.80;;;;;;;;;;2613223;47;20459;-78
2023/11/06 08:28:51;;;;;;;10.40;3.67;;;;;;;;;;2614016;39;20882;-78
2023/11/06 08:31:17;;;;;;;6.80;3.50;;;;;;;;;;2614395;54;20416;-78
2023/11/06 08:33:43;;;;;;;7.40;3.00;;;;;;;;;;2613099;47;20625;-76
2023/11/06 08:36:09;;;;;;;20.83;4.30;;;;;;;;;;2613328;54;20499;-78
2023/11/06 08:38:35;;;;;;;11.50;3.53;;;;;;;;;;2612979;54;20416;-78
2023/11/06 08:41:07;;;;;;;10.40;2.90;;;;;;;;;;2613609;54;20411;-77
2023/11/06 08:43:33;;;;;;;7.87;3.37;;;;;;;;;;2612877;54;21570;-78
2023/11/06 08:46:04;;;;;;;6.37;3.37;;;;;;;;;;2613733;54;20428;-78
2023/11/06 08:48:30;;;;;;;12.10;4.33;;;;;;;;;;2613471;46;20427;-78
2023/11/06 08:50:56;;;;;;;5.57;3.30;;;;;;;;;;2614135;54;20558;-77
2023/11/06 08:53:23;;;;;;;7.60;2.87;;;;;;;;;;2612417;54;20519;-76
2023/11/06 08:55:49;;;;;;;8.43;2.93;;;;;;;;;;2611418;54;20427;-75
2023/11/06 08:58:18;;;;;;;4.60;3.30;;;;;;;;;;2611931;54;20587;-74
2023/11/06 09:00:47;;;;;;;11.93;3.20;;;;;;;;;;2611569;54;20407;-76
2023/11/06 09:03:13;;;;;;;5.87;3.77;;;;;;;;;;2611353;54;20964;-77
2023/11/06 09:05:40;;;;;;;7.83;3.60;;;;;;;;;;2608611;54;20470;-76
2023/11/06 09:08:06;;;;;;;3.07;2.77;;;;;;;;;;2611017;47;21166;-74
2023/11/06 09:10:33;;;;;;;5.33;3.20;;;;;;;;;;2611370;54;20399;-73
2023/11/06 09:13:00;;;;;;;6.57;3.17;;;;;;;;;;2611278;47;20435;-76
2023/11/06 09:15:26;;;;;;;8.77;3.30;;;;;;;;;;2611901;54;20427;-75
2023/11/06 09:17:53;;;;;;;10.77;3.93;;;;;;;;;;2611369;54;20423;-74
2023/11/06 09:20:20;;;;;;;8.63;3.83;;;;;;;;;;2611044;46;20550;-75
2023/11/06 09:22:46;;;;;;;4.23;3.93;;;;;;;;;;2611302;47;20423;-75
2023/11/06 09:25:12;;;;;;;8.00;4.40;;;;;;;;;;2612058;54;20415;-75
2023/11/06 09:27:39;;;;;;;11.77;4.10;;;;;;;;;;2610588;54;20938;-76
2023/11/06 09:30:08;;;;;;;6.93;4.30;;;;;;;;;;2610905;54;20402;-77
2023/11/06 09:32:35;;;;;;;5.93;3.43;;;;;;;;;;2607622;46;20438;-75
2023/11/06 09:35:03;;;;;;;8.30;4.00;;;;;;;;;;2609327;54;20974;-75
2023/11/06 09:37:29;;;;;;;6.40;5.03;;;;;;;;;;2609773;54;20962;-77
2023/11/06 09:39:55;;;;;;;13.03;4.30;;;;;;;;;;2607852;47;20986;-75
2023/11/06 09:42:22;;;;;;;5.63;4.70;;;;;;;;;;2608192;54;20407;-77
2023/11/06 09:44:48;;;;;;;4.33;3.93;;;;;;;;;;2608156;54;20435;-76
2023/11/06 09:47:15;;;;;;;8.90;5.60;;;;;;;;;;2609488;54;20490;-75
2023/11/06 09:50:03;;;;;;;10.30;5.50;;;;;;;;;;2610494;39;20924;-76
2023/11/06 09:52:29;;;;;;;6.33;4.33;;;;;;;;;;2608396;47;20411;-75
2023/11/06 09:54:56;;;;;;;6.37;4.90;;;;;;;;;;2608319;39;20887;-75
2023/11/06 09:57:23;;;;;;;5.37;4.27;;;;;;;;;;2607175;47;20420;-74
2023/11/06 09:59:49;;;;;;;15.37;6.10;;;;;;;;;;2607964;54;20482;-76
2023/11/06 10:02:15;;;;;;;8.00;5.03;;;;;;;;;;2609772;54;20435;-75
2023/11/06 10:04:41;;;;;;;9.93;5.50;;;;;;;;;;2609690;47;20444;-75
2023/11/06 10:07:07;;;;;;;6.83;5.10;;;;;;;;;;2610798;54;20527;-74
2023/11/06 10:09:34;;;;;;;6.00;5.40;;;;;;;;;;2611863;54;20938;-75
2023/11/06 10:12:16;;;;;;;4.83;4.50;;;;;;;;;;2611706;54;20546;-75
2023/11/06 10:14:42;;;;;;;6.23;4.73;;;;;;;;;;2610783;54;20421;-75
2023/11/06 10:17:08;;;;;;;7.43;5.27;;;;;;;;;;2609506;54;20426;-76
2023/11/06 10:19:35;;;;;;;6.40;5.10;;;;;;;;;;2610957;54;20418;-76
2023/11/06 10:22:11;;;;;;;8.43;5.27;;;;;;;;;;2611403;31;20854;-76
2023/11/06 10:24:48;;;;;;;8.33;5.60;;;;;;;;;;2610977;47;20408;-77
2023/11/06 10:27:26;;;;;;;5.50;4.90;;;;;;;;;;2610435;54;20445;-76
2023/11/06 10:29:58;;;;;;;5.13;4.70;;;;;;;;;;2611296;54;20423;-76
2023/11/06 10:32:28;;;;;;;4.63;4.33;;;;;;;;;;2610772;47;20407;-76
2023/11/06 10:34:54;;;;;;;4.57;4.23;;;;;;;;;;2610166;54;20418;-76
2023/11/06 10:37:27;;;;;;;6.43;5.07;;;;;;;;;;2611327;54;20400;-75
2023/11/06 10:39:54;;;;;;;7.37;5.00;;;;;;;;;;2609909;54;20969;-75
2023/11/06 10:42:23;;;;;;;11.63;5.40;;;;;;;;;;2610349;54;20515;-76
2023/11/06 10:44:55;;;;;;;7.10;4.60;;;;;;;;;;2611429;54;20937;-75
2023/11/06 10:47:25;;;;;;;8.83;4.70;;;;;;;;;;2610462;54;20423;-75
2023/11/06 10:49:58;;;;;;;9.40;6.07;;;;;;;;;;2611178;54;20878;-77
2023/11/06 10:52:25;;;;;;;5.50;5.00;;;;;;;;;;2610736;47;20406;-76
2023/11/06 10:54:54;;;;;;;10.00;5.33;;;;;;;;;;2611000;54;20427;-75
2023/11/06 10:57:20;;;;;;;10.43;4.57;;;;;;;;;;2611539;39;20790;-74
2023/11/06 10:59:46;;;;;;;8.70;4.37;;;;;;;;;;2610411;54;20419;-75
2023/11/06 11:02:23;;;;;;;9.23;5.13;;;;;;;;;;2610892;54;20448;-76
2023/11/06 11:04:51;;;;;;;6.67;4.27;;;;;;;;;;2609918;54;20415;-75
2023/11/06 11:07:18;;;;;;;11.73;4.70;;;;;;;;;;2610857;39;20806;-75
2023/11/06 11:09:44;;;;;;;7.30;5.30;;;;;;;;;;2610471;54;20430;-76
2023/11/06 11:12:10;;;;;;;8.30;4.20;;;;;;;;;;2611120;54;20375;-74
2023/11/06 11:14:37;;;;;;;12.10;4.50;;;;;;;;;;2611652;54;20522;-76
2023/11/06 11:17:12;;;;;;;10.43;4.97;;;;;;;;;;2611776;54;20491;-76
2023/11/06 11:19:39;;;;;;;5.37;4.70;;;;;;;;;;2610912;54;20461;-76
2023/11/06 11:22:12;;;;;;;7.07;5.10;;;;;;;;;;2611224;54;20966;-76
2023/11/06 11:24:41;;;;;;;9.57;4.40;;;;;;;;;;2610520;54;20395;-77
2023/11/06 11:27:34;;;;;;;8.30;4.77;;;;;;;;;;2611609;54;20933;-76
2023/11/06 11:30:00;;;;;;;5.87;4.70;;;;;;;;;;2610711;51;20440;-75
2023/11/06 11:32:29;;;;;;;11.50;4.30;;;;;;;;;;2612481;39;20860;-76
2023/11/06 11:34:57;;;;;;;5.17;4.67;;;;;;;;;;2612237;54;20882;-76
2023/11/06 11:37:26;;;;;;;4.60;4.30;;;;;;;;;;2611790;54;20436;-77
2023/11/06 11:39:55;;;;;;;4.50;4.20;;;;;;;;;;2612584;54;20487;-76
2023/11/06 11:42:21;;;;;;;7.70;4.50;;;;;;;;;;2611539;46;20549;-76
2023/11/06 11:45:11;;;;;;;4.20;3.90;;;;;;;;;;2611955;54;20417;-77
2023/11/06 11:47:49;;;;;;;3.70;3.50;;;;;;;;;;2610712;54;20447;-75
2023/11/06 11:50:27;;;;;;;6.83;4.60;;;;;;;;;;2611584;54;20925;-75
2023/11/06 11:52:53;;;;;;;5.60;5.20;;;;;;;;;;2612261;39;20427;-76
2023/11/06 11:55:34;;;;;;;5.87;5.40;;;;;;;;;;2611190;54;20395;-76
2023/11/06 11:58:05;;;;;;;5.23;4.93;;;;;;;;;;2611052;47;20415;-76
2023/11/06 12:00:40;;;;;;;7.47;5.00;;;;;;;;;;2612072;54;20452;-76
2023/11/06 12:03:14;;;;;;;5.63;5.30;;;;;;;;;;2610385;54;20510;-75
2023/11/06 12:05:41;;;;;;;9.80;5.83;;;;;;;;;;2612056;54;20427;-76
2023/11/06 12:08:14;;;;;;;7.73;5.70;;;;;;;;;;2611891;54;20989;-75
2023/11/06 12:10:42;;;;;;;5.47;4.63;;;;;;;;;;2612317;54;20450;-77
2023/11/06 12:13:12;;;;;;;4.93;4.53;;;;;;;;;;2611774;39;20816;-76
2023/11/06 12:15:38;;;;;;;5.47;4.97;;;;;;;;;;2612600;31;20929;-75
2023/11/06 12:18:11;;;;;;;5.73;5.17;;;;;;;;;;2610966;54;20399;-75
2023/11/06 12:20:37;;;;;;;4.93;4.63;;;;;;;;;;2609846;54;20423;-76
2023/11/06 12:23:04;;;;;;;5.20;4.70;;;;;;;;;;2612362;54;20783;-75
2023/11/06 12:25:33;;;;;;;8.37;4.70;;;;;;;;;;2611607;54;20920;-76
2023/11/06 12:28:06;;;;;;;7.20;4.77;;;;;;;;;;2611514;54;20427;-76
2023/11/06 12:30:33;;;;;;;5.00;4.23;;;;;;;;;;2609298;54;20439;-76
2023/11/06 12:33:15;;;;;;;7.97;4.60;;;;;;;;;;2611890;54;20408;-76
2023/11/06 12:35:42;;;;;;;6.00;4.90;;;;;;;;;;2609740;54;20427;-76
2023/11/06 12:38:09;;;;;;;4.40;4.00;;;;;;;;;;2610807;39;20800;-76
2023/11/06 12:40:41;;;;;;;5.43;3.93;;;;;;;;;;2612062;54;20428;-76
2023/11/06 12:43:07;;;;;;;4.67;4.27;;;;;;;;;;2611910;54;20431;-75
2023/11/06 12:45:35;;;;;;;5.90;4.73;;;;;;;;;;2611704;54;20423;-75
2023/11/06 12:48:18;;;;;;;4.50;4.10;;;;;;;;;;2611469;39;20820;-76
2023/11/06 12:50:57;;;;;;;5.90;4.43;;;;;;;;;;2611109;54;20399;-76
2023/11/06 12:53:24;;;;;;;4.33;4.13;;;;;;;;;;2611844;54;20930;-76
2023/11/06 12:55:50;;;;;;;4.90;4.43;;;;;;;;;;2610911;54;20415;-76
2023/11/06 12:58:19;;;;;;;4.80;4.37;;;;;;;;;;2611336;54;20924;-76
2023/11/06 13:00:52;;;;;;;6.43;4.70;;;;;;;;;;2610088;54;20996;-75
2023/11/06 13:03:19;;;;;;;7.63;4.83;;;;;;;;;;2610698;54;20489;-75
2023/11/06 13:05:45;;;;;;;7.23;5.20;;;;;;;;;;2610614;46;20442;-76
2023/11/06 13:08:12;;;;;;;3.73;3.53;;;;;;;;;;2610898;54;21260;-76
2023/11/06 13:10:38;;;;;;;5.27;3.77;;;;;;;;;;2611119;50;20431;-75
2023/11/06 13:13:05;;;;;;;4.43;4.10;;;;;;;;;;2612158;54;21016;-76
2023/11/06 13:15:31;;;;;;;4.00;3.63;;;;;;;;;;2611830;54;20396;-75
2023/11/06 13:17:59;;;;;;;4.50;4.10;;;;;;;;;;2611241;47;20431;-74
2023/11/06 13:20:27;;;;;;;5.20;4.83;;;;;;;;;;2611244;54;20443;-75
2023/11/06 13:22:57;;;;;;;5.17;4.80;;;;;;;;;;2611032;47;20475;-75
2023/11/06 13:25:24;;;;;;;5.20;4.70;;;;;;;;;;2611435;54;20407;-75
2023/11/06 13:27:50;;;;;;;5.23;4.93;;;;;;;;;;2610740;54;20404;-77
2023/11/06 13:30:18;;;;;;;7.50;4.87;;;;;;;;;;2610415;54;20981;-76
2023/11/06 13:32:44;;;;;;;5.27;4.83;;;;;;;;;;2611215;31;20887;-76
2023/11/06 13:35:16;;;;;;;4.73;4.40;;;;;;;;;;2611272;54;20426;-75
2023/11/06 13:37:42;;;;;;;4.37;4.07;;;;;;;;;;2611427;54;20515;-76
2023/11/06 13:40:18;;;;;;;6.23;5.73;;;;;;;;;;2611246;54;20482;-74
2023/11/06 13:42:44;;;;;;;5.33;5.03;;;;;;;;;;2611034;39;21268;-75
2023/11/06 13:45:10;;;;;;;6.37;5.97;;;;;;;;;;2608059;47;20458;-77
2023/11/06 13:47:37;;;;;;;6.20;5.60;;;;;;;;;;2608691;54;20412;-75
2023/11/06 13:50:11;;;;;;;5.50;5.20;;;;;;;;;;2608050;47;21043;-76
2023/11/06 13:52:42;;;;;;;5.13;4.93;;;;;;;;;;2611013;54;20465;-76
2023/11/06 13:55:15;;;;;;;6.10;5.60;;;;;;;;;;2607704;54;20404;-74
2023/11/06 13:57:44;;;;;;;5.33;4.83;;;;;;;;;;2610353;54;20419;-73
2023/11/06 14:00:31;;;;;;;5.50;5.10;;;;;;;;;;2611314;54;20399;-75
2023/11/06 14:02:58;;;;;;;5.17;4.67;;;;;;;;;;2611017;39;20852;-74
2023/11/06 14:05:25;;;;;;;6.67;6.27;;;;;;;;;;2611584;54;20506;-75
2023/11/06 14:07:51;;;;;;;5.00;4.70;;;;;;;;;;2610653;47;20415;-76
2023/11/06 14:10:32;;;;;;;5.57;5.07;;;;;;;;;;2610606;54;20450;-76
2023/11/06 14:13:03;;;;;;;5.17;4.67;;;;;;;;;;2610261;47;20431;-73
2023/11/06 14:15:30;;;;;;;5.67;5.37;;;;;;;;;;2610751;54;20414;-75
2023/11/06 14:17:58;;;;;;;6.17;5.70;;;;;;;;;;2610132;54;20941;-77
2023/11/06 14:20:28;;;;;;;4.90;4.60;;;;;;;;;;2609349;54;20535;-75
2023/11/06 14:22:54;;;;;;;5.30;5.00;;;;;;;;;;2608046;47;20430;-75
2023/11/06 14:25:22;;;;;;;5.23;4.93;;;;;;;;;;2607614;47;20439;-75
2023/11/06 14:27:48;;;;;;;5.10;4.80;;;;;;;;;;2608818;51;20948;-75
2023/11/06 14:30:15;;;;;;;5.23;4.93;;;;;;;;;;2607716;54;20428;-74
2023/11/06 14:32:42;;;;;;;6.10;5.50;;;;;;;;;;2605952;48;20567;-75
2023/11/06 14:35:11;;;;;;;5.77;5.27;;;;;;;;;;2607599;54;20439;-75
2023/11/06 14:37:41;;;;;;;6.47;5.87;;;;;;;;;;2608806;54;20534;-74
2023/11/06 14:40:17;;;;;;;5.83;5.37;;;;;;;;;;2608981;54;20406;-74
2023/11/06 14:42:44;;;;;;;5.20;4.80;;;;;;;;;;2607562;54;20446;-77